sensor_id;sensor_type;location;lat;lon;timestamp;pressure;altitude;pressure_sealevel;temperature;humidity
46347;BME280;32057;47.830;19.046;2023-12-29T00:01:55;100704.94;;;-1.16;100.00
46347;BME280;32057;47.830;19.046;2023-12-29T00:04:20;100708.88;;;-1.09;100.00
46347;BME280;32057;47.830;19.046;2023-12-29T00:06:45;100706.44;;;-1.08;100.00
46347;BME280;32057;47.830;19.046;2023-12-29T00:09:11;100705.06;;;-1.03;100.00
46347;BME280;32057;47.830;19.046;2023-12-29T00:11:38;100694.19;;;-1.00;100.00
46347;BME280;32057;47.830;19.046;2023-12-29T00:14:03;100696.31;;;-0.94;100.00
46347;BME280;32057;47.830;19.046;2023-12-29T00:16:28;100693.63;;;-0.84;100.00
46347;BME280;32057;47.830;19.046;2023-12-29T00:18:54;100692.84;;;-0.83;100.00
46347;BME280;32057;47.830;19.046;2023-12-29T00:21:19;100693.63;;;-0.84;100.00
46347;BME280;32057;47.830;19.046;2023-12-29T00:23:44;100689.75;;;-0.79;100.00
46347;BME280;32057;47.830;19.046;2023-12-29T00:26:10;100692.41;;;-0.77;100.00
46347;BME280;32057;47.830;19.046;2023-12-29T00:28:35;100694.97;;;-0.77;100.00
46347;BME280;32057;47.830;19.046;2023-12-29T00:31:05;100690.75;;;-0.77;100.00
46347;BME280;32057;47.830;19.046;2023-12-29T00:33:31;100698.84;;;-0.83;100.00
46347;BME280;32057;47.830;19.046;2023-12-29T00:35:57;100684.63;;;-0.79;100.00
46347;BME280;32057;47.830;19.046;2023-12-29T00:38:22;100695.28;;;-0.73;100.00
46347;BME280;32057;47.830;19.046;2023-12-29T00:40:47;100691.50;;;-0.78;100.00
46347;BME280;32057;47.830;19.046;2023-12-29T00:43:13;100707.63;;;-0.91;100.00
46347;BME280;32057;47.830;19.046;2023-12-29T00:45:38;100701.41;;;-0.94;100.00
46347;BME280;32057;47.830;19.046;2023-12-29T00:48:04;100693.88;;;-1.05;100.00
46347;BME280;32057;47.830;19.046;2023-12-29T00:50:29;100691.44;;;-1.03;100.00
46347;BME280;32057;47.830;19.046;2023-12-29T00:52:54;100683.75;;;-1.03;100.00
46347;BME280;32057;47.830;19.046;2023-12-29T00:55:20;100683.88;;;-1.02;100.00
46347;BME280;32057;47.830;19.046;2023-12-29T00:57:45;100678.41;;;-0.94;100.00
46347;BME280;32057;47.830;19.046;2023-12-29T01:00:11;100683.53;;;-0.94;100.00
46347;BME280;32057;47.830;19.046;2023-12-29T01:02:37;100681.66;;;-0.85;100.00
46347;BME280;32057;47.830;19.046;2023-12-29T01:05:03;100673.31;;;-0.83;100.00
46347;BME280;32057;47.830;19.046;2023-12-29T01:07:28;100672.06;;;-0.76;100.00
46347;BME280;32057;47.830;19.046;2023-12-29T01:09:54;100675.63;;;-0.74;100.00
46347;BME280;32057;47.830;19.046;2023-12-29T01:12:19;100675.84;;;-0.71;100.00
46347;BME280;32057;47.830;19.046;2023-12-29T01:14:44;100671.84;;;-0.67;100.00
46347;BME280;32057;47.830;19.046;2023-12-29T01:17:09;100675.72;;;-0.61;100.00
46347;BME280;32057;47.830;19.046;2023-12-29T01:19:35;100676.13;;;-0.54;100.00
46347;BME280;32057;47.830;19.046;2023-12-29T01:22:00;100670.81;;;-0.57;100.00
46347;BME280;32057;47.830;19.046;2023-12-29T01:24:25;100668.75;;;-0.75;100.00
46347;BME280;32057;47.830;19.046;2023-12-29T01:26:51;100663.97;;;-0.82;100.00
46347;BME280;32057;47.830;19.046;2023-12-29T01:29:16;100655.41;;;-0.83;100.00
46347;BME280;32057;47.830;19.046;2023-12-29T01:31:42;100662.75;;;-0.75;100.00
46347;BME280;32057;47.830;19.046;2023-12-29T01:34:07;100652.97;;;-0.69;100.00
46347;BME280;32057;47.830;19.046;2023-12-29T01:36:32;100658.28;;;-0.78;100.00
46347;BME280;32057;47.830;19.046;2023-12-29T01:38:58;100659.91;;;-0.92;100.00
46347;BME280;32057;47.830;19.046;2023-12-29T01:41:23;100654.53;;;-0.83;100.00
46347;BME280;32057;47.830;19.046;2023-12-29T01:46:28;100651.63;;;-0.76;100.00
46347;BME280;32057;47.830;19.046;2023-12-29T01:48:54;100656.09;;;-0.85;100.00
46347;BME280;32057;47.830;19.046;2023-12-29T01:51:23;100661.78;;;-0.89;100.00
46347;BME280;32057;47.830;19.046;2023-12-29T01:53:50;100656.09;;;-0.85;100.00
46347;BME280;32057;47.830;19.046;2023-12-29T01:56:16;100656.88;;;-0.98;100.00
46347;BME280;32057;47.830;19.046;2023-12-29T01:58:43;100655.88;;;-0.88;100.00
46347;BME280;32057;47.830;19.046;2023-12-29T02:01:08;100653.22;;;-0.90;100.00
46347;BME280;32057;47.830;19.046;2023-12-29T02:03:34;100644.88;;;-0.87;100.00
46347;BME280;32057;47.830;19.046;2023-12-29T02:06:01;100640.97;;;-0.82;100.00
46347;BME280;32057;47.830;19.046;2023-12-29T02:08:26;100644.53;;;-0.80;100.00
46347;BME280;32057;47.830;19.046;2023-12-29T02:10:52;100643.00;;;-0.90;100.00
46347;BME280;32057;47.830;19.046;2023-12-29T02:13:17;100650.09;;;-0.86;100.00
46347;BME280;32057;47.830;19.046;2023-12-29T02:15:43;100644.31;;;-0.83;100.00
46347;BME280;32057;47.830;19.046;2023-12-29T02:18:14;100640.31;;;-0.79;100.00
46347;BME280;32057;47.830;19.046;2023-12-29T02:20:41;100645.09;;;-0.84;100.00
46347;BME280;32057;47.830;19.046;2023-12-29T02:23:07;100636.84;;;-0.80;100.00
46347;BME280;32057;47.830;19.046;2023-12-29T02:25:33;100630.56;;;-0.85;100.00
46347;BME280;32057;47.830;19.046;2023-12-29T02:28:04;100629.97;;;-0.81;100.00
46347;BME280;32057;47.830;19.046;2023-12-29T02:30:39;100622.31;;;-0.81;100.00
46347;BME280;32057;47.830;19.046;2023-12-29T02:33:10;100619.31;;;-0.75;100.00
46347;BME280;32057;47.830;19.046;2023-12-29T02:35:41;100625.84;;;-0.67;100.00
46347;BME280;32057;47.830;19.046;2023-12-29T02:38:07;100616.03;;;-0.61;100.00
46347;BME280;32057;47.830;19.046;2023-12-29T02:40:33;100610.47;;;-0.55;100.00
46347;BME280;32057;47.830;19.046;2023-12-29T02:42:58;100603.81;;;-0.53;100.00
46347;BME280;32057;47.830;19.046;2023-12-29T02:45:23;100602.00;;;-0.54;100.00
46347;BME280;32057;47.830;19.046;2023-12-29T02:47:49;100605.56;;;-0.52;100.00
46347;BME280;32057;47.830;19.046;2023-12-29T02:50:15;100606.00;;;-0.58;100.00
46347;BME280;32057;47.830;19.046;2023-12-29T02:52:41;100605.13;;;-0.58;100.00
46347;BME280;32057;47.830;19.046;2023-12-29T02:55:06;100607.34;;;-0.51;100.00
46347;BME280;32057;47.830;19.046;2023-12-29T02:57:32;100598.31;;;-0.46;100.00
46347;BME280;32057;47.830;19.046;2023-12-29T02:59:57;100598.88;;;-0.50;100.00
46347;BME280;32057;47.830;19.046;2023-12-29T03:02:23;100598.47;;;-0.56;100.00
46347;BME280;32057;47.830;19.046;2023-12-29T03:04:48;100600.56;;;-0.51;100.00
46347;BME280;32057;47.830;19.046;2023-12-29T03:07:14;100599.97;;;-0.47;100.00
46347;BME280;32057;47.830;19.046;2023-12-29T03:09:39;100608.53;;;-0.46;100.00
46347;BME280;32057;47.830;19.046;2023-12-29T03:12:05;100608.19;;;-0.39;100.00
46347;BME280;32057;47.830;19.046;2023-12-29T03:14:31;100605.97;;;-0.46;100.00
46347;BME280;32057;47.830;19.046;2023-12-29T03:16:56;100601.78;;;-0.46;100.00
46347;BME280;32057;47.830;19.046;2023-12-29T03:19:22;100612.19;;;-0.43;100.00
46347;BME280;32057;47.830;19.046;2023-12-29T03:21:48;100599.28;;;-0.44;100.00
46347;BME280;32057;47.830;19.046;2023-12-29T03:24:13;100604.00;;;-0.50;100.00
46347;BME280;32057;47.830;19.046;2023-12-29T03:26:38;100599.28;;;-0.44;100.00
46347;BME280;32057;47.830;19.046;2023-12-29T03:29:04;100601.97;;;-0.43;100.00
46347;BME280;32057;47.830;19.046;2023-12-29T03:31:29;100598.84;;;-0.38;100.00
46347;BME280;32057;47.830;19.046;2023-12-29T03:33:55;100618.53;;;-0.37;100.00
46347;BME280;32057;47.830;19.046;2023-12-29T03:36:20;100612.84;;;-0.33;100.00
46347;BME280;32057;47.830;19.046;2023-12-29T03:38:45;100619.47;;;-0.24;100.00
46347;BME280;32057;47.830;19.046;2023-12-29T03:41:10;100617.09;;;-0.21;100.00
46347;BME280;32057;47.830;19.046;2023-12-29T03:43:36;100604.69;;;-0.28;100.00
46347;BME280;32057;47.830;19.046;2023-12-29T03:46:01;100602.34;;;-0.25;100.00
46347;BME280;32057;47.830;19.046;2023-12-29T03:48:26;100595.34;;;-0.27;100.00
46347;BME280;32057;47.830;19.046;2023-12-29T03:50:52;100599.78;;;-0.25;100.00
46347;BME280;32057;47.830;19.046;2023-12-29T03:53:17;100590.53;;;-0.23;100.00
46347;BME280;32057;47.830;19.046;2023-12-29T03:55:44;100594.09;;;-0.21;100.00
46347;BME280;32057;47.830;19.046;2023-12-29T03:58:09;100588.38;;;-0.16;100.00
46347;BME280;32057;47.830;19.046;2023-12-29T04:00:36;100598.25;;;-0.09;100.00
46347;BME280;32057;47.830;19.046;2023-12-29T04:03:01;100595.13;;;-0.05;100.00
46347;BME280;32057;47.830;19.046;2023-12-29T04:05:27;100585.66;;;-0.06;100.00
46347;BME280;32057;47.830;19.046;2023-12-29T04:07:52;100580.63;;;-0.18;100.00
46347;BME280;32057;47.830;19.046;2023-12-29T04:10:17;100581.81;;;-0.13;100.00
46347;BME280;32057;47.830;19.046;2023-12-29T04:12:43;100581.13;;;-0.10;100.00
46347;BME280;32057;47.830;19.046;2023-12-29T04:15:08;100584.88;;;-0.05;100.00
46347;BME280;32057;47.830;19.046;2023-12-29T04:17:34;100581.63;;;-0.03;100.00
46347;BME280;32057;47.830;19.046;2023-12-29T04:19:59;100585.75;;;-0.05;100.00
46347;BME280;32057;47.830;19.046;2023-12-29T04:22:25;100591.00;;;-0.03;100.00
46347;BME280;32057;47.830;19.046;2023-12-29T04:24:50;100595.13;;;-0.05;100.00
46347;BME280;32057;47.830;19.046;2023-12-29T04:27:17;100592.66;;;-0.04;100.00
46347;BME280;32057;47.830;19.046;2023-12-29T04:29:43;100591.75;;;-0.04;100.00
46347;BME280;32057;47.830;19.046;2023-12-29T04:32:09;100589.31;;;-0.03;100.00
46347;BME280;32057;47.830;19.046;2023-12-29T04:34:34;100588.44;;;-0.03;100.00
46347;BME280;32057;47.830;19.046;2023-12-29T04:37:00;100594.66;;;0.01;100.00
46347;BME280;32057;47.830;19.046;2023-12-29T04:39:25;100598.09;;;0.01;100.00
46347;BME280;32057;47.830;19.046;2023-12-29T04:41:50;100600.28;;;0.08;100.00
46347;BME280;32057;47.830;19.046;2023-12-29T04:44:16;100605.69;;;0.13;100.00
46347;BME280;32057;47.830;19.046;2023-12-29T04:46:41;100616.63;;;0.10;100.00
46347;BME280;32057;47.830;19.046;2023-12-29T04:49:07;100618.59;;;0.14;100.00
46347;BME280;32057;47.830;19.046;2023-12-29T04:51:32;100618.78;;;0.17;100.00
46347;BME280;32057;47.830;19.046;2023-12-29T04:53:58;100612.78;;;0.17;100.00
46347;BME280;32057;47.830;19.046;2023-12-29T04:56:23;100611.50;;;0.10;100.00
46347;BME280;32057;47.830;19.046;2023-12-29T04:58:51;100614.94;;;0.11;100.00
46347;BME280;32057;47.830;19.046;2023-12-29T05:01:16;100613.06;;;0.08;100.00
46347;BME280;32057;47.830;19.046;2023-12-29T05:03:42;100608.72;;;0.07;100.00
46347;BME280;32057;47.830;19.046;2023-12-29T05:06:07;100609.03;;;0.12;100.00
46347;BME280;32057;47.830;19.046;2023-12-29T05:08:32;100613.38;;;0.13;100.00
46347;BME280;32057;47.830;19.046;2023-12-29T05:10:58;100619.25;;;0.12;100.00
46347;BME280;32057;47.830;19.046;2023-12-29T05:13:23;100623.91;;;0.17;100.00
46347;BME280;32057;47.830;19.046;2023-12-29T05:15:48;100624.13;;;0.21;100.00
46347;BME280;32057;47.830;19.046;2023-12-29T05:18:14;100615.97;;;0.26;100.00
46347;BME280;32057;47.830;19.046;2023-12-29T05:20:39;100615.28;;;0.29;100.00
46347;BME280;32057;47.830;19.046;2023-12-29T05:23:04;100610.34;;;0.32;100.00
46347;BME280;32057;47.830;19.046;2023-12-29T05:25:29;100617.63;;;0.26;100.00
46347;BME280;32057;47.830;19.046;2023-12-29T05:27:55;100616.72;;;0.25;100.00
46347;BME280;32057;47.830;19.046;2023-12-29T05:30:20;100614.75;;;0.21;100.00
46347;BME280;32057;47.830;19.046;2023-12-29T05:32:45;100624.31;;;0.24;100.00
46347;BME280;32057;47.830;19.046;2023-12-29T05:35:11;100619.19;;;0.24;100.00
46347;BME280;32057;47.830;19.046;2023-12-29T05:37:36;100624.31;;;0.24;100.00
46347;BME280;32057;47.830;19.046;2023-12-29T05:40:01;100624.88;;;0.19;100.00
46347;BME280;32057;47.830;19.046;2023-12-29T05:42:27;100631.91;;;0.22;100.00
46347;BME280;32057;47.830;19.046;2023-12-29T05:44:52;100619.59;;;0.16;100.00
46347;BME280;32057;47.830;19.046;2023-12-29T05:47:18;100618.59;;;0.14;100.00
46347;BME280;32057;47.830;19.046;2023-12-29T05:49:43;100604.81;;;0.12;100.00
46347;BME280;32057;47.830;19.046;2023-12-29T05:52:09;100599.13;;;0.16;100.00
46347;BME280;32057;47.830;19.046;2023-12-29T05:54:34;100600.75;;;0.16;100.00
46347;BME280;32057;47.830;19.046;2023-12-29T05:57:00;100605.41;;;0.22;100.00
46347;BME280;32057;47.830;19.046;2023-12-29T05:59:26;100602.06;;;0.23;100.00
46347;BME280;32057;47.830;19.046;2023-12-29T06:01:51;100608.38;;;0.28;100.00
46347;BME280;32057;47.830;19.046;2023-12-29T06:04:16;100601.59;;;0.28;100.00
46347;BME280;32057;47.830;19.046;2023-12-29T06:06:42;100599.09;;;0.30;100.00
46347;BME280;32057;47.830;19.046;2023-12-29T06:09:09;100593.59;;;0.24;100.00
46347;BME280;32057;47.830;19.046;2023-12-29T06:11:35;100599.69;;;0.26;100.00
46347;BME280;32057;47.830;19.046;2023-12-29T06:14:01;100592.63;;;0.35;100.00
46347;BME280;32057;47.830;19.046;2023-12-29T06:16:26;100598.84;;;0.38;100.00
46347;BME280;32057;47.830;19.046;2023-12-29T06:18:52;100606.63;;;0.40;100.00
46347;BME280;32057;47.830;19.046;2023-12-29T06:21:18;100611.91;;;0.30;100.00
46347;BME280;32057;47.830;19.046;2023-12-29T06:23:44;100608.38;;;0.41;100.00
46347;BME280;32057;47.830;19.046;2023-12-29T06:26:16;100606.44;;;0.50;100.00
46347;BME280;32057;47.830;19.046;2023-12-29T06:28:43;100607.44;;;0.52;100.00
46347;BME280;32057;47.830;19.046;2023-12-29T06:31:08;100612.53;;;0.52;100.00
46347;BME280;32057;47.830;19.046;2023-12-29T06:33:33;100627.91;;;0.52;100.00
46347;BME280;32057;47.830;19.046;2023-12-29T06:35:59;100631.94;;;0.49;100.00
46347;BME280;32057;47.830;19.046;2023-12-29T06:38:24;100642.69;;;0.56;100.00
46347;BME280;32057;47.830;19.046;2023-12-29T06:40:49;100646.53;;;0.63;100.00
46347;BME280;32057;47.830;19.046;2023-12-29T06:43:15;100642.09;;;0.61;100.00
46347;BME280;32057;47.830;19.046;2023-12-29T06:45:40;100636.97;;;0.61;100.00
46347;BME280;32057;47.830;19.046;2023-12-29T06:48:06;100626.81;;;0.49;100.00
46347;BME280;32057;47.830;19.046;2023-12-29T06:50:31;100621.59;;;0.47;100.00
46347;BME280;32057;47.830;19.046;2023-12-29T06:52:56;100615.47;;;0.45;100.00
46347;BME280;32057;47.830;19.046;2023-12-29T06:55:22;100608.78;;;0.47;100.00
46347;BME280;32057;47.830;19.046;2023-12-29T06:57:47;100611.56;;;0.50;100.00
46347;BME280;32057;47.830;19.046;2023-12-29T07:00:13;100625.25;;;0.51;100.00
46347;BME280;32057;47.830;19.046;2023-12-29T07:02:38;100623.56;;;0.51;100.00
46347;BME280;32057;47.830;19.046;2023-12-29T07:05:06;100622.78;;;0.52;100.00
46347;BME280;32057;47.830;19.046;2023-12-29T07:07:31;100630.06;;;0.59;100.00
46347;BME280;32057;47.830;19.046;2023-12-29T07:09:57;100632.03;;;0.64;100.00
46347;BME280;32057;47.830;19.046;2023-12-29T07:12:22;100633.22;;;0.55;100.00
46347;BME280;32057;47.830;19.046;2023-12-29T07:14:47;100634.81;;;0.67;100.00
46347;BME280;32057;47.830;19.046;2023-12-29T07:17:13;100635.97;;;0.72;100.00
46347;BME280;32057;47.830;19.046;2023-12-29T07:19:38;100635.41;;;0.76;100.00
46347;BME280;32057;47.830;19.046;2023-12-29T07:22:04;100630.69;;;0.82;100.00
46347;BME280;32057;47.830;19.046;2023-12-29T07:24:33;100633.63;;;0.88;100.00
46347;BME280;32057;47.830;19.046;2023-12-29T07:27:00;100618.44;;;0.91;100.00
46347;BME280;32057;47.830;19.046;2023-12-29T07:29:25;100627.69;;;0.89;100.00
46347;BME280;32057;47.830;19.046;2023-12-29T07:31:51;100632.06;;;0.90;100.00
46347;BME280;32057;47.830;19.046;2023-12-29T07:34:16;100625.13;;;0.89;100.00
46347;BME280;32057;47.830;19.046;2023-12-29T07:36:42;100631.44;;;0.81;100.00
46347;BME280;32057;47.830;19.046;2023-12-29T07:39:07;100626.53;;;0.84;100.00
46347;BME280;32057;47.830;19.046;2023-12-29T07:41:34;100621.97;;;0.93;100.00
46347;BME280;32057;47.830;19.046;2023-12-29T07:43:59;100629.06;;;0.97;100.00
46347;BME280;32057;47.830;19.046;2023-12-29T07:46:25;100631.13;;;1.03;100.00
46347;BME280;32057;47.830;19.046;2023-12-29T07:48:51;100628.97;;;1.09;100.00
46347;BME280;32057;47.830;19.046;2023-12-29T07:51:17;100637.75;;;1.13;100.00
46347;BME280;32057;47.830;19.046;2023-12-29T07:53:43;100631.91;;;1.15;100.00
46347;BME280;32057;47.830;19.046;2023-12-29T07:56:10;100627.09;;;1.20;100.00
46347;BME280;32057;47.830;19.046;2023-12-29T07:58:35;100632.50;;;1.25;100.00
46347;BME280;32057;47.830;19.046;2023-12-29T08:01:01;100631.78;;;1.27;100.00
46347;BME280;32057;47.830;19.046;2023-12-29T08:03:26;100628.06;;;1.22;100.00
46347;BME280;32057;47.830;19.046;2023-12-29T08:05:52;100620.56;;;1.25;100.00
46347;BME280;32057;47.830;19.046;2023-12-29T08:08:17;100619.47;;;1.22;100.00
46347;BME280;32057;47.830;19.046;2023-12-29T08:10:42;100620.56;;;1.25;100.00
46347;BME280;32057;47.830;19.046;2023-12-29T08:13:08;100619.19;;;1.30;100.00
46347;BME280;32057;47.830;19.046;2023-12-29T08:15:34;100620.94;;;1.31;100.00
46347;BME280;32057;47.830;19.046;2023-12-29T08:18:00;100626.25;;;1.34;100.00
46347;BME280;32057;47.830;19.046;2023-12-29T08:20:25;100626.25;;;1.34;100.00
46347;BME280;32057;47.830;19.046;2023-12-29T08:22:50;100628.22;;;1.38;100.00
46347;BME280;32057;47.830;19.046;2023-12-29T08:25:16;100642.63;;;1.36;100.00
46347;BME280;32057;47.830;19.046;2023-12-29T08:27:41;100648.75;;;1.38;100.00
46347;BME280;32057;47.830;19.046;2023-12-29T08:30:07;100649.72;;;1.41;100.00
46347;BME280;32057;47.830;19.046;2023-12-29T08:32:33;100641.31;;;1.43;100.00
46347;BME280;32057;47.830;19.046;2023-12-29T08:34:58;100655.31;;;1.48;100.00
46347;BME280;32057;47.830;19.046;2023-12-29T08:37:24;100658.06;;;1.51;100.00
46347;BME280;32057;47.830;19.046;2023-12-29T08:39:49;100662.59;;;1.55;100.00
46347;BME280;32057;47.830;19.046;2023-12-29T08:42:14;100655.19;;;1.60;100.00
46347;BME280;32057;47.830;19.046;2023-12-29T08:44:40;100648.47;;;1.62;100.00
46347;BME280;32057;47.830;19.046;2023-12-29T08:47:05;100653.63;;;1.62;100.00
46347;BME280;32057;47.830;19.046;2023-12-29T08:49:35;100651.22;;;1.65;100.00
46347;BME280;32057;47.830;19.046;2023-12-29T08:52:01;100643.34;;;1.62;100.00
46347;BME280;32057;47.830;19.046;2023-12-29T08:54:26;100637.16;;;1.58;100.00
46347;BME280;32057;47.830;19.046;2023-12-29T08:56:52;100631.13;;;1.58;100.00
46347;BME280;32057;47.830;19.046;2023-12-29T08:59:18;100645.09;;;1.63;100.00
46347;BME280;32057;47.830;19.046;2023-12-29T09:01:43;100662.09;;;1.61;100.00
46347;BME280;32057;47.830;19.046;2023-12-29T09:04:09;100653.63;;;1.62;100.00
46347;BME280;32057;47.830;19.046;2023-12-29T09:06:34;100653.50;;;1.61;100.00
46347;BME280;32057;47.830;19.046;2023-12-29T09:08:59;100653.88;;;1.67;100.00
46347;BME280;32057;47.830;19.046;2023-12-29T09:11:25;100661.06;;;1.72;100.00
46347;BME280;32057;47.830;19.046;2023-12-29T09:13:51;100659.59;;;1.76;100.00
46347;BME280;32057;47.830;19.046;2023-12-29T09:16:17;100652.56;;;1.73;100.00
46347;BME280;32057;47.830;19.046;2023-12-29T09:18:42;100659.66;;;1.77;100.00
46347;BME280;32057;47.830;19.046;2023-12-29T09:21:07;100654.72;;;1.81;100.00
46347;BME280;32057;47.830;19.046;2023-12-29T09:23:33;100646.22;;;1.82;100.00
46347;BME280;32057;47.830;19.046;2023-12-29T09:25:59;100649.75;;;1.84;100.00
46347;BME280;32057;47.830;19.046;2023-12-29T09:28:24;100649.19;;;1.88;100.00
46347;BME280;32057;47.830;19.046;2023-12-29T09:30:49;100655.28;;;1.90;100.00
46347;BME280;32057;47.830;19.046;2023-12-29T09:33:15;100658.03;;;1.93;100.00
46347;BME280;32057;47.830;19.046;2023-12-29T09:35:40;100653.00;;;1.94;100.00
46347;BME280;32057;47.830;19.046;2023-12-29T09:38:05;100647.66;;;1.91;100.00
46347;BME280;32057;47.830;19.046;2023-12-29T09:40:31;100647.75;;;1.93;100.00
46347;BME280;32057;47.830;19.046;2023-12-29T09:42:58;100648.13;;;1.99;100.00
46347;BME280;32057;47.830;19.046;2023-12-29T09:45:24;100643.81;;;1.98;100.00
46347;BME280;32057;47.830;19.046;2023-12-29T09:47:52;100655.28;;;1.90;100.00
46347;BME280;32057;47.830;19.046;2023-12-29T09:50:19;100642.00;;;1.97;100.00
46347;BME280;32057;47.830;19.046;2023-12-29T09:52:48;100632.81;;;2.01;100.00
46347;BME280;32057;47.830;19.046;2023-12-29T09:55:13;100637.25;;;2.03;100.00
46347;BME280;32057;47.830;19.046;2023-12-29T09:57:40;100630.81;;;2.10;100.00
46347;BME280;32057;47.830;19.046;2023-12-29T10:00:11;100631.22;;;2.17;100.00
46347;BME280;32057;47.830;19.046;2023-12-29T10:02:37;100624.19;;;2.28;100.00
46347;BME280;32057;47.830;19.046;2023-12-29T10:05:04;100625.22;;;2.47;100.00
46347;BME280;32057;47.830;19.046;2023-12-29T10:07:33;100615.22;;;2.51;100.00
46347;BME280;32057;47.830;19.046;2023-12-29T10:10:01;100624.72;;;2.52;100.00
46347;BME280;32057;47.830;19.046;2023-12-29T10:12:28;100627.72;;;2.45;100.00
46347;BME280;32057;47.830;19.046;2023-12-29T10:15:04;100615.31;;;2.53;100.00
46347;BME280;32057;47.830;19.046;2023-12-29T10:18:06;100610.06;;;2.51;100.00
46347;BME280;32057;47.830;19.046;2023-12-29T10:23:17;100609.22;;;2.36;100.00
46347;BME280;32057;47.830;19.046;2023-12-29T10:25:43;100600.06;;;2.41;100.00
46347;BME280;32057;47.830;19.046;2023-12-29T10:28:10;100605.06;;;2.38;100.00
46347;BME280;32057;47.830;19.046;2023-12-29T10:30:35;100605.84;;;2.37;100.00
46347;BME280;32057;47.830;19.046;2023-12-29T10:33:03;100603.13;;;2.34;100.00
46347;BME280;32057;47.830;19.046;2023-12-29T10:35:29;100605.22;;;2.41;100.00
46347;BME280;32057;47.830;19.046;2023-12-29T10:38:08;100599.00;;;2.37;100.00
46347;BME280;32057;47.830;19.046;2023-12-29T10:40:34;100596.53;;;2.39;100.00
46347;BME280;32057;47.830;19.046;2023-12-29T10:42:59;100589.72;;;2.39;100.00
46347;BME280;32057;47.830;19.046;2023-12-29T10:45:30;100580.50;;;2.43;100.00
46347;BME280;32057;47.830;19.046;2023-12-29T10:47:55;100578.66;;;2.41;100.00
46347;BME280;32057;47.830;19.046;2023-12-29T10:50:20;100582.72;;;2.37;100.00
46347;BME280;32057;47.830;19.046;2023-12-29T10:52:46;100577.78;;;2.40;100.00
46347;BME280;32057;47.830;19.046;2023-12-29T10:55:12;100570.69;;;2.36;100.00
46347;BME280;32057;47.830;19.046;2023-12-29T10:57:38;100568.19;;;2.37;100.00
46347;BME280;32057;47.830;19.046;2023-12-29T11:00:05;100578.81;;;2.44;100.00
46347;BME280;32057;47.830;19.046;2023-12-29T11:02:32;100575.38;;;2.43;100.00
46347;BME280;32057;47.830;19.046;2023-12-29T11:05:06;100569.59;;;2.47;100.00
46347;BME280;32057;47.830;19.046;2023-12-29T11:07:32;100562.72;;;2.46;100.00
46347;BME280;32057;47.830;19.046;2023-12-29T11:10:00;100552.16;;;2.42;100.00
46347;BME280;32057;47.830;19.046;2023-12-29T11:12:29;100551.38;;;2.43;100.00
46347;BME280;32057;47.830;19.046;2023-12-29T11:14:55;100550.66;;;2.45;100.00
46347;BME280;32057;47.830;19.046;2023-12-29T11:17:20;100550.22;;;2.52;100.00
46347;BME280;32057;47.830;19.046;2023-12-29T11:19:46;100555.34;;;2.52;100.00
46347;BME280;32057;47.830;19.046;2023-12-29T11:22:14;100538.09;;;2.50;100.00
46347;BME280;32057;47.830;19.046;2023-12-29T11:24:40;100538.09;;;2.50;100.00
46347;BME280;32057;47.830;19.046;2023-12-29T11:27:10;100534.72;;;2.51;100.00
46347;BME280;32057;47.830;19.046;2023-12-29T11:29:37;100536.75;;;2.56;100.00
46347;BME280;32057;47.830;19.046;2023-12-29T11:32:04;100531.50;;;2.55;100.00
46347;BME280;32057;47.830;19.046;2023-12-29T11:34:37;100531.94;;;2.63;100.00
46347;BME280;32057;47.830;19.046;2023-12-29T11:37:18;100527.59;;;2.62;100.00
46347;BME280;32057;47.830;19.046;2023-12-29T11:39:54;100521.22;;;2.70;100.00
46347;BME280;32057;47.830;19.046;2023-12-29T11:42:29;100522.97;;;2.71;100.00
46347;BME280;32057;47.830;19.046;2023-12-29T11:44:58;100518.72;;;2.71;100.00
46347;BME280;32057;47.830;19.046;2023-12-29T11:47:43;100510.75;;;2.67;100.00
46347;BME280;32057;47.830;19.046;2023-12-29T11:50:08;100506.78;;;2.72;100.00
46347;BME280;32057;47.830;19.046;2023-12-29T11:52:39;100498.88;;;2.69;100.00
46347;BME280;32057;47.830;19.046;2023-12-29T11:55:14;100503.03;;;2.67;100.00
46347;BME280;32057;47.830;19.046;2023-12-29T11:57:40;100500.66;;;2.70;100.00
46347;BME280;32057;47.830;19.046;2023-12-29T12:00:07;100500.66;;;2.70;100.00
46347;BME280;32057;47.830;19.046;2023-12-29T12:02:32;100504.00;;;2.69;100.00
46347;BME280;32057;47.830;19.046;2023-12-29T12:04:58;100496.75;;;2.62;100.00
46347;BME280;32057;47.830;19.046;2023-12-29T12:09:49;100497.91;;;2.67;100.00
46347;BME280;32057;47.830;19.046;2023-12-29T12:12:38;100499.06;;;2.72;100.00
46347;BME280;32057;47.830;19.046;2023-12-29T12:17:58;100494.41;;;2.81;100.00
46347;BME280;32057;47.830;19.046;2023-12-29T12:20:24;100485.56;;;2.76;100.00
46347;BME280;32057;47.830;19.046;2023-12-29T12:22:58;100498.16;;;2.71;100.00
46347;BME280;32057;47.830;19.046;2023-12-29T12:25:28;100489.47;;;2.69;100.00
46347;BME280;32057;47.830;19.046;2023-12-29T12:27:54;100504.19;;;2.72;100.00
46347;BME280;32057;47.830;19.046;2023-12-29T12:30:20;100495.84;;;2.76;100.00
46347;BME280;32057;47.830;19.046;2023-12-29T12:32:47;100496.00;;;2.79;100.00
46347;BME280;32057;47.830;19.046;2023-12-29T12:35:21;100489.34;;;2.83;100.00
46347;BME280;32057;47.830;19.046;2023-12-29T12:37:47;100487.97;;;2.89;100.00
46347;BME280;32057;47.830;19.046;2023-12-29T12:40:24;100489.69;;;2.89;100.00
46347;BME280;32057;47.830;19.046;2023-12-29T12:42:49;100483.75;;;2.90;100.00